createdAt,value
2022-09-23T10:36:22.654Z,48.47
2022-09-23T10:40:55.047Z,47.20
2022-09-23T10:41:05.048Z,47.10
2022-09-23T10:41:14.945Z,47.10
2022-09-23T10:42:54.230Z,47.74
2022-09-23T10:43:04.221Z,48.04
2022-09-23T10:43:14.214Z,48.14
2022-09-23T10:43:24.216Z,48.04
2022-09-23T10:43:34.219Z,48.14
2022-09-23T10:43:44.234Z,48.24
2022-09-23T10:45:54.751Z,47.61
2022-09-23T10:46:04.746Z,47.30
2022-09-23T10:46:14.730Z,47.81
2022-09-23T10:46:24.734Z,48.42
2022-09-23T10:46:34.743Z,48.83
2022-09-23T10:46:44.722Z,48.52
2022-09-23T10:46:54.681Z,47.51
2022-09-23T10:47:04.682Z,47.20
2022-09-23T10:58:20.593Z,48.80
2022-09-23T11:02:28.585Z,47.28
2022-09-23T11:02:38.551Z,47.49
2022-09-23T11:02:48.564Z,47.79
2022-09-23T11:02:58.580Z,48.40
2022-09-23T11:03:08.554Z,48.50
2022-09-23T11:03:18.563Z,48.30
2022-09-23T11:03:28.556Z,47.89
2022-09-23T11:03:38.559Z,47.69
2022-09-23T11:03:48.558Z,47.81
2022-09-23T11:03:58.658Z,48.02
2022-09-23T11:04:08.970Z,48.32
2022-09-23T11:04:18.770Z,48.63
2022-09-23T11:04:28.681Z,48.91
2022-09-23T11:04:38.588Z,49.11
2022-09-23T11:04:48.608Z,49.11
2022-09-23T11:04:58.590Z,49.21
2022-09-23T11:05:08.618Z,48.80
2022-09-23T11:07:07.903Z,48.40
2022-09-23T11:07:17.891Z,48.71
2022-09-23T11:07:27.927Z,48.71
2022-09-23T11:07:37.885Z,48.19
2022-09-23T11:07:47.885Z,47.79
2022-09-23T11:07:57.916Z,47.89
2022-09-23T11:09:44.888Z,47.95
2022-09-23T11:11:43.155Z,45.51
2022-09-23T11:14:02.359Z,46.35
2022-09-23T11:15:18.764Z,45.84
2022-09-23T11:15:28.750Z,46.65
2022-09-23T11:18:53.179Z,47.10
2022-09-23T11:19:03.178Z,46.70
2022-09-23T11:19:30.421Z,47.00
2022-09-23T11:19:30.715Z,47.81
2022-09-23T11:19:45.324Z,48.11
2022-09-23T11:19:50.714Z,48.22
2022-09-23T11:21:05.730Z,46.17
2022-09-23T11:21:15.723Z,45.86
2022-09-23T11:21:25.715Z,45.66
2022-09-23T11:21:35.714Z,45.64
2022-09-23T11:21:45.722Z,46.04
2022-09-23T11:23:25.881Z,45.43
2022-09-23T11:23:35.865Z,45.23
2022-09-23T11:23:45.868Z,45.54
2022-09-23T11:26:44.503Z,45.94
2022-09-23T11:26:54.487Z,46.83
2022-09-23T11:33:09.731Z,46.10
2022-09-23T11:34:35.196Z,45.90
2022-09-23T11:34:45.199Z,45.90
2022-09-23T11:34:55.252Z,45.79
2022-09-23T11:35:05.179Z,45.90
2022-09-23T11:35:15.182Z,46.20
2022-09-23T11:35:25.187Z,46.43
2022-09-23T11:35:35.189Z,46.30
2022-09-23T11:35:45.213Z,46.00
2022-09-23T11:35:55.194Z,45.79
2022-09-23T11:36:05.186Z,45.90
2022-09-23T11:37:21.615Z,45.70
2022-09-23T11:37:31.603Z,45.70
2022-09-23T11:37:41.592Z,45.79
2022-09-23T11:37:51.591Z,45.79
2022-09-23T11:38:01.592Z,45.70
2022-09-23T11:39:31.952Z,44.78
2022-09-23T11:40:48.400Z,43.79
2022-09-23T11:40:58.373Z,43.51
2022-09-23T11:41:08.383Z,43.91
2022-09-23T11:41:18.335Z,44.42
2022-09-23T11:41:28.337Z,44.62
2022-09-23T11:41:38.363Z,44.82
2022-09-23T11:41:48.335Z,44.73
2022-09-23T11:41:58.341Z,44.93
2022-09-23T11:42:08.336Z,45.13
2022-09-23T11:42:18.340Z,45.23
2022-09-23T11:42:28.348Z,45.43
2022-09-23T11:42:38.341Z,45.74
2022-09-23T11:42:48.343Z,45.64
2022-09-23T11:44:10.699Z,44.95
2022-09-23T11:44:20.699Z,45.25
2022-09-23T11:44:30.688Z,46.17
2022-09-23T11:44:40.681Z,46.17
2022-09-23T11:44:50.702Z,46.37
2022-09-23T11:45:00.682Z,46.47
2022-09-23T11:45:10.693Z,45.97
2022-09-23T11:45:20.702Z,45.66
2022-09-23T11:45:30.754Z,45.89
2022-09-23T11:45:40.718Z,46.09
2022-09-23T11:45:50.744Z,46.19
2022-09-23T11:46:00.754Z,46.39
2022-09-23T11:46:10.738Z,46.39
2022-09-23T11:46:20.740Z,47.30
2022-09-23T11:46:30.814Z,47.51
2022-09-23T11:46:40.691Z,47.20
2022-09-23T11:46:50.697Z,46.90
2022-09-23T11:48:07.509Z,50.04
2022-09-23T11:48:17.500Z,49.23
2022-09-23T11:48:27.496Z,48.63
2022-09-23T11:48:37.497Z,48.32
2022-09-23T11:48:47.503Z,48.11
2022-09-23T11:48:57.498Z,47.79
2022-09-23T11:49:07.498Z,48.19
2022-09-23T11:49:17.500Z,49.01
2022-09-23T11:49:27.502Z,48.80
2022-09-23T11:49:37.503Z,49.01
2022-09-23T11:49:47.505Z,49.01
2022-09-23T11:49:57.521Z,49.01
2022-09-23T11:50:07.502Z,48.80
2022-09-23T11:50:17.508Z,48.71
2022-09-23T11:50:27.507Z,48.60
2022-09-23T11:50:37.517Z,47.79
2022-09-23T11:50:47.509Z,47.89
2022-09-23T11:50:57.505Z,48.19
2022-09-23T11:51:07.506Z,48.40
2022-09-23T11:51:17.507Z,48.80
2022-09-23T11:51:27.555Z,48.40
2022-09-23T11:51:37.510Z,47.59
2022-09-23T11:51:47.511Z,47.18
2022-09-23T11:51:57.507Z,46.98
2022-09-23T11:52:07.509Z,47.06
2022-09-23T11:53:29.876Z,47.46
2022-09-23T11:53:39.855Z,47.26
2022-09-23T11:53:49.872Z,47.46
2022-09-23T11:53:59.967Z,47.56
2022-09-23T11:54:09.913Z,47.67
2022-09-23T11:54:20.823Z,47.77
2022-09-23T11:54:29.853Z,48.07
2022-09-23T11:54:51.529Z,47.87
2022-09-23T11:54:51.804Z,48.07
2022-09-23T11:55:04.420Z,48.07
2022-09-23T11:55:21.550Z,47.67
2022-09-23T11:55:23.407Z,47.64
2022-09-23T11:55:31.795Z,47.54
2022-09-23T11:55:53.564Z,47.44
2022-09-23T11:55:57.906Z,47.44
2022-09-23T11:56:02.799Z,47.34
2022-09-23T11:56:11.961Z,47.24
2022-09-23T11:56:31.945Z,46.83
2022-09-23T11:56:35.859Z,46.22
2022-09-23T11:56:44.672Z,45.92
2022-09-23T11:56:51.801Z,46.94
2022-09-23T11:57:01.804Z,48.05
2022-09-23T11:57:11.804Z,47.14
2022-09-23T11:57:21.802Z,46.73
2022-09-23T11:57:42.514Z,46.04
2022-09-23T11:57:49.038Z,45.94
2022-09-23T11:57:52.806Z,45.54
2022-09-23T11:58:01.856Z,45.64
2022-09-23T11:58:23.408Z,45.97
2022-09-23T11:58:25.950Z,46.57
2022-09-23T11:58:31.862Z,47.49
2022-09-23T11:58:43.258Z,47.59
2022-09-23T11:58:55.692Z,47.49
2022-09-23T11:59:02.880Z,47.28
2022-09-23T11:59:12.064Z,47.28
2022-09-23T11:59:31.706Z,47.38
2022-09-23T11:59:40.032Z,47.38
2022-09-23T11:59:42.882Z,47.49
2022-09-23T12:01:43.100Z,46.27
2022-09-23T12:01:50.025Z,46.17
2022-09-23T12:02:03.775Z,45.36
2022-09-23T12:03:21.008Z,45.97
2022-09-23T12:03:41.626Z,45.86
2022-09-23T12:03:44.703Z,46.17
2022-09-23T12:03:50.619Z,46.37
2022-09-23T12:04:10.273Z,45.76
2022-09-23T12:04:20.017Z,45.46
2022-09-23T12:04:21.843Z,45.33
2022-09-23T12:04:30.947Z,45.13
2022-09-23T12:04:52.911Z,45.43
2022-09-23T12:09:13.541Z,42.61
2022-09-23T12:09:36.004Z,42.72
2022-09-23T12:09:57.214Z,42.92
2022-09-23T12:09:58.440Z,43.12
2022-09-23T12:09:59.834Z,43.02
2022-09-23T12:10:03.552Z,43.53
2022-09-23T12:10:13.531Z,43.63
2022-09-23T12:10:23.540Z,42.82
2022-09-23T12:10:33.575Z,42.82
2022-09-23T12:10:43.531Z,43.43
2022-09-23T12:10:53.531Z,44.16
2022-09-23T12:11:03.540Z,44.56
2022-09-23T12:11:13.542Z,44.46
2022-09-23T12:11:23.544Z,43.85
2022-09-23T12:12:43.992Z,43.93
2022-09-23T12:12:53.958Z,43.93
2022-09-23T12:13:03.961Z,43.84
2022-09-23T12:13:13.959Z,43.73
2022-09-23T12:13:23.962Z,43.84
2022-09-23T12:13:33.971Z,44.04
2022-09-23T12:13:43.963Z,44.13
2022-09-23T12:13:53.964Z,44.13
2022-09-23T12:15:10.887Z,44.13
2022-09-23T12:15:20.863Z,44.13
2022-09-23T12:16:39.229Z,40.87
2022-09-23T12:16:49.270Z,41.07
2022-09-23T12:16:59.305Z,40.97
2022-09-23T12:17:09.190Z,40.97
2022-09-23T12:17:19.187Z,40.87
2022-09-23T12:17:29.203Z,40.87
2022-09-23T12:17:39.192Z,40.77
2022-09-23T12:17:49.191Z,40.77
2022-09-23T12:17:59.191Z,40.56
2022-09-23T12:18:09.192Z,40.26
2022-09-23T12:18:23.024Z,40.06
2022-09-23T12:18:29.201Z,40.04
2022-09-23T12:18:39.196Z,39.84
2022-09-23T12:19:05.892Z,39.84
2022-09-23T12:19:06.183Z,39.84
2022-09-23T12:20:21.203Z,39.94
2022-09-23T12:20:31.179Z,40.14
2022-09-23T12:20:41.182Z,40.34
2022-09-23T12:20:51.178Z,40.85
2022-09-23T12:21:08.671Z,40.75
2022-09-23T12:21:27.134Z,40.53
2022-09-23T12:21:46.194Z,40.83
2022-09-23T12:24:45.792Z,40.73
2022-09-23T12:24:55.098Z,40.53
2022-09-23T12:25:05.107Z,40.43
2022-09-23T12:25:15.104Z,40.22
2022-09-23T12:25:25.104Z,40.53
2022-09-23T12:25:35.115Z,40.73
2022-09-23T12:25:45.102Z,40.83
2022-09-23T12:25:55.112Z,40.73
2022-09-23T12:26:05.123Z,40.63
2022-09-23T12:26:15.103Z,40.43
2022-09-23T12:26:25.108Z,40.43
2022-09-23T12:26:35.110Z,40.53
2022-09-23T12:26:45.106Z,40.53
2022-09-23T12:26:55.109Z,40.43
2022-09-23T12:27:05.106Z,40.73
2022-09-23T12:27:15.108Z,40.83
2022-09-23T12:27:25.108Z,40.83
2022-09-23T12:27:35.122Z,40.83
2022-09-23T12:27:45.109Z,40.83
2022-09-23T12:28:06.787Z,40.55
2022-09-23T12:28:07.111Z,40.55
2022-09-23T12:28:17.073Z,40.43
2022-09-23T12:28:27.082Z,40.43
2022-09-23T12:28:37.073Z,40.33
2022-09-23T12:34:44.801Z,42.21
2022-09-23T12:34:54.735Z,42.19
2022-09-23T12:36:20.490Z,41.68
2022-09-23T12:36:30.474Z,41.68
2022-09-23T12:36:40.474Z,41.48
2022-09-23T12:39:22.544Z,42.98
2022-09-23T12:39:31.878Z,42.68
2022-09-23T12:39:41.882Z,42.37
2022-09-23T12:39:51.894Z,42.17
2022-09-23T12:40:01.902Z,42.37
2022-09-23T12:40:11.994Z,42.57
2022-09-23T12:40:21.942Z,42.88
2022-09-23T12:40:31.951Z,42.78
2022-09-23T12:40:41.930Z,42.68
2022-09-23T12:40:51.916Z,42.37
2022-09-23T12:41:01.887Z,42.27
2022-09-23T12:41:11.894Z,42.60
2022-09-23T12:50:53.156Z,41.77
2022-09-23T12:51:03.133Z,41.86
2022-09-23T12:51:13.136Z,41.77
2022-09-23T12:59:24.637Z,42.41
2022-09-23T12:59:34.629Z,42.51
2022-09-23T12:59:44.620Z,42.60
2022-09-23T13:02:03.681Z,41.30
2022-09-23T13:02:13.591Z,41.48
2022-09-23T13:05:19.971Z,41.88
2022-09-23T13:05:29.969Z,42.29
2022-09-23T13:05:39.957Z,42.29
2022-09-23T13:05:49.955Z,41.99
2022-09-23T13:07:15.605Z,41.78
2022-09-23T13:07:25.601Z,41.97
2022-09-23T13:07:35.588Z,41.97
2022-09-23T13:07:45.588Z,41.86
2022-09-23T13:07:55.600Z,41.86
2022-09-23T13:10:38.080Z,41.86
2022-09-23T13:10:48.047Z,41.78
2022-09-23T13:10:58.045Z,41.78
2022-09-23T13:11:08.052Z,42.07
2022-09-23T13:11:18.068Z,42.78
2022-09-23T13:11:28.046Z,43.18
2022-09-23T13:11:38.063Z,42.68
2022-09-23T13:11:48.075Z,42.47
2022-09-23T13:11:58.047Z,42.57
2022-09-23T13:12:08.079Z,42.68
2022-09-23T13:12:18.055Z,42.88
2022-09-23T13:13:54.091Z,40.95
2022-09-23T13:14:04.293Z,40.87
2022-09-23T13:14:14.076Z,40.55
2022-09-23T13:14:36.087Z,40.34
2022-09-23T13:14:36.356Z,40.55
2022-09-23T13:14:46.370Z,40.65
2022-09-23T13:14:56.362Z,40.47
2022-09-23T13:15:06.380Z,40.47
2022-09-23T13:18:03.971Z,40.67
2022-09-23T13:18:12.999Z,40.87
2022-09-23T13:18:23.007Z,40.97
2022-09-23T13:18:33.001Z,40.97
2022-09-23T13:18:43.001Z,41.07
2022-09-23T13:18:53.018Z,41.17
2022-09-23T13:19:03.007Z,41.38
2022-09-23T13:19:13.005Z,41.07
2022-09-23T13:21:07.392Z,40.87
2022-09-23T13:21:17.396Z,40.87
2022-09-23T13:21:27.377Z,40.56
2022-09-23T13:23:02.197Z,40.06
2022-09-23T13:24:28.522Z,40.69
2022-09-23T13:24:38.514Z,40.89
2022-09-23T13:24:48.505Z,40.99
2022-09-23T13:29:08.879Z,41.26
2022-09-23T13:29:18.860Z,41.16
2022-09-23T13:29:28.856Z,40.85
2022-09-23T13:29:38.859Z,40.55
2022-09-23T13:31:08.355Z,40.26
2022-09-23T13:31:18.346Z,39.96
2022-09-23T13:34:00.766Z,41.66
2022-09-23T13:34:01.081Z,41.36
2022-09-23T13:34:11.876Z,41.46
2022-09-23T13:34:21.050Z,41.86
2022-09-23T13:36:28.363Z,42.09
2022-09-23T13:36:38.369Z,42.29
2022-09-23T13:36:48.347Z,42.49
2022-09-23T13:36:58.346Z,42.39
2022-09-23T13:37:08.349Z,42.29
2022-09-23T13:37:22.184Z,41.88
2022-09-23T13:37:28.397Z,41.99
2022-09-23T13:37:38.350Z,42.80
2022-09-23T13:37:48.352Z,43.18
2022-09-23T13:37:58.438Z,43.10
2022-09-23T13:38:08.352Z,42.78
2022-09-23T13:38:18.353Z,42.37
2022-09-23T13:38:28.354Z,42.17
2022-09-23T13:38:38.356Z,41.97
2022-09-23T13:38:48.375Z,42.37
2022-09-23T13:38:58.359Z,42.78
2022-09-23T13:39:08.360Z,43.18
2022-09-23T13:39:18.358Z,43.49
2022-09-23T13:39:28.361Z,43.49
2022-09-23T13:39:38.359Z,42.68
2022-09-23T13:39:48.480Z,42.37
2022-09-23T13:39:58.366Z,42.27
2022-09-23T13:40:08.540Z,42.37
2022-09-23T13:40:18.399Z,42.57
2022-09-23T13:40:28.459Z,42.47
2022-09-23T13:40:38.427Z,42.57
2022-09-23T13:40:48.497Z,42.60
2022-09-23T13:40:58.462Z,42.80
2022-09-23T13:41:08.365Z,42.90
2022-09-23T13:41:18.365Z,42.69
2022-09-23T13:41:28.369Z,42.39
2022-09-23T13:41:50.115Z,42.39
2022-09-23T13:41:50.398Z,42.39
2022-09-23T13:45:30.244Z,41.78
2022-09-23T13:45:40.268Z,41.68
2022-09-23T13:45:50.276Z,41.68
2022-09-23T13:46:00.365Z,41.66
2022-09-23T13:46:10.322Z,41.77
2022-09-23T13:49:01.304Z,43.10
2022-09-23T13:49:23.334Z,43.00
2022-09-23T13:49:23.626Z,42.90
2022-09-23T13:49:33.616Z,43.41
2022-09-23T13:51:49.092Z,44.24
2022-09-23T13:51:59.085Z,44.44
2022-09-23T13:52:09.077Z,44.24
2022-09-23T13:52:19.076Z,43.93
2022-09-23T13:52:29.083Z,43.93
2022-09-23T13:52:39.079Z,44.54
2022-09-23T13:52:49.078Z,44.54
2022-09-23T13:52:59.080Z,44.54
2022-09-23T13:53:09.082Z,44.24
2022-09-23T13:53:19.143Z,44.24
2022-09-23T13:53:29.083Z,44.24
2022-09-23T13:53:39.090Z,44.24
2022-09-23T13:55:11.242Z,42.90
2022-09-23T13:56:31.639Z,43.93
2022-09-23T13:56:41.653Z,43.73
2022-09-23T13:56:51.624Z,43.02
2022-09-23T13:57:01.623Z,42.61
2022-09-23T13:57:11.639Z,42.31
2022-09-23T13:57:21.627Z,42.21
2022-09-23T13:58:51.853Z,41.91
2022-09-23T13:59:01.852Z,41.70
2022-09-23T14:00:36.086Z,40.89
2022-09-23T14:00:46.138Z,41.09
2022-09-23T14:02:02.493Z,41.30
2022-09-23T14:02:12.534Z,41.09
2022-09-23T14:02:22.491Z,41.09
2022-09-23T14:02:32.531Z,41.19
2022-09-23T14:02:42.530Z,41.60
2022-09-23T14:02:52.457Z,41.80
2022-09-23T14:03:02.487Z,41.60
2022-09-23T14:03:12.469Z,41.40
2022-09-23T14:03:22.458Z,40.89
2022-09-23T14:03:36.492Z,40.69
2022-09-23T14:03:42.460Z,40.89
2022-09-23T14:03:52.460Z,41.09
2022-09-23T14:04:02.651Z,41.40
2022-09-23T14:04:12.464Z,41.70
2022-09-23T14:04:22.477Z,41.91
2022-09-23T14:04:32.473Z,42.21
2022-09-23T14:04:54.040Z,42.61
2022-09-23T14:04:54.310Z,42.41
2022-09-23T14:05:04.311Z,42.61
2022-09-23T14:05:14.313Z,43.02
2022-09-23T14:05:24.312Z,42.72
2022-09-23T14:05:34.314Z,42.21
2022-09-23T14:05:44.316Z,42.31
2022-09-23T14:05:54.318Z,41.91
2022-09-23T14:06:04.355Z,41.58
2022-09-23T14:06:14.318Z,41.70
2022-09-23T14:06:24.314Z,41.80
2022-09-23T14:06:34.315Z,41.80
2022-09-23T14:06:44.313Z,41.80
2022-09-23T14:06:54.362Z,41.91
2022-09-23T14:07:04.316Z,41.80
2022-09-23T14:07:14.314Z,41.80
2022-09-23T14:07:24.316Z,42.00
2022-09-23T14:07:34.318Z,42.11
2022-09-23T14:07:44.316Z,41.70
2022-09-23T14:07:54.332Z,41.70
2022-09-23T14:08:04.322Z,41.70
2022-09-23T14:08:14.324Z,41.70
2022-09-23T14:08:24.325Z,41.91
2022-09-23T14:08:34.320Z,42.21
2022-09-23T14:08:44.324Z,42.84
2022-09-23T14:08:54.359Z,43.02
2022-09-23T14:09:04.323Z,42.54
2022-09-23T14:09:14.324Z,42.02
2022-09-23T14:09:24.326Z,42.23
2022-09-23T14:09:34.328Z,42.33
2022-09-23T14:09:44.329Z,42.63
2022-09-23T14:09:54.330Z,43.04
2022-09-23T14:10:04.332Z,43.04
2022-09-23T14:10:14.339Z,43.04
2022-09-23T14:10:24.336Z,42.84
2022-09-23T14:14:52.015Z,42.23
2022-09-23T14:14:52.303Z,42.63
2022-09-23T14:15:05.288Z,42.92
2022-09-23T14:15:12.305Z,43.12
2022-09-23T14:15:22.299Z,43.23
2022-09-23T14:15:32.292Z,43.02
2022-09-23T14:15:42.309Z,42.72
2022-09-23T14:17:12.639Z,43.23
2022-09-23T14:17:22.624Z,42.92
2022-09-23T14:17:32.624Z,42.61
2022-09-23T14:17:42.628Z,42.51
2022-09-23T14:17:52.627Z,42.61
2022-09-23T14:18:02.626Z,42.51
2022-09-23T14:18:12.649Z,42.39
2022-09-23T14:18:22.636Z,42.60
2022-09-23T14:18:32.632Z,42.69
2022-09-23T14:18:42.629Z,42.80
2022-09-23T14:18:52.698Z,42.90
2022-09-23T14:19:02.632Z,43.00
2022-09-23T14:20:19.040Z,43.00
2022-09-23T14:20:29.031Z,43.00
2022-09-23T14:20:39.026Z,43.00
2022-09-23T14:20:49.031Z,42.69
2022-09-23T14:20:59.032Z,42.69
2022-09-23T14:21:09.033Z,42.60
2022-09-23T14:21:19.031Z,42.39
2022-09-23T14:21:29.041Z,42.29
2022-09-23T14:21:39.033Z,42.31
2022-09-23T14:21:49.034Z,42.11
2022-09-23T14:21:59.036Z,42.21
2022-09-23T14:23:46.937Z,41.99
2022-09-23T14:23:56.910Z,41.78
2022-09-23T14:24:07.045Z,41.68
2022-09-23T14:25:52.845Z,42.60
2022-09-23T14:26:02.828Z,43.20
2022-09-23T14:26:12.825Z,43.61
2022-09-23T14:26:22.861Z,43.71
2022-09-23T14:26:32.830Z,43.79
2022-09-23T14:26:42.835Z,43.99
2022-09-23T14:26:52.830Z,43.99
2022-09-23T14:27:02.836Z,43.99
2022-09-23T14:27:12.836Z,44.10
2022-09-23T14:27:22.836Z,44.22
2022-09-23T14:27:32.839Z,44.32
2022-09-23T14:27:42.843Z,44.32
2022-09-23T14:30:55.188Z,43.00
2022-09-23T14:31:05.187Z,43.10
2022-09-23T14:31:15.242Z,43.00
2022-09-23T14:31:25.195Z,43.00
2022-09-23T14:31:35.226Z,43.20
2022-09-23T14:31:45.243Z,43.41
2022-09-23T14:31:55.211Z,43.61
2022-09-23T14:32:05.181Z,43.71
2022-09-23T14:32:15.189Z,43.71
2022-09-23T14:32:25.182Z,43.61
2022-09-23T14:32:35.196Z,43.81
2022-09-23T14:32:45.179Z,43.81
2022-09-23T14:35:04.656Z,44.73
2022-09-23T14:35:14.642Z,44.62
2022-09-23T14:35:24.635Z,44.74
2022-09-23T14:35:34.633Z,44.85
2022-09-23T14:35:44.640Z,44.85
2022-09-23T14:35:54.634Z,44.74
2022-09-23T14:36:04.642Z,44.74
2022-09-23T14:36:14.638Z,45.05
2022-09-23T14:36:24.639Z,45.25
2022-09-23T14:36:34.643Z,45.46
2022-09-23T14:36:44.639Z,45.46
2022-09-23T14:36:54.651Z,45.36
2022-09-23T14:37:04.643Z,45.05
2022-09-23T14:37:14.641Z,44.85
2022-09-23T14:37:24.642Z,45.25
2022-09-23T14:37:34.648Z,45.05
2022-09-23T14:37:44.643Z,45.05
2022-09-23T14:37:54.645Z,45.36
2022-09-23T14:38:04.657Z,45.36
2022-09-23T14:38:23.741Z,45.46
2022-09-23T14:38:24.643Z,45.46
2022-09-23T14:38:34.659Z,45.25
2022-09-23T14:42:02.876Z,44.56
2022-09-23T14:42:12.864Z,44.56
2022-09-23T14:42:22.848Z,44.77
2022-09-23T14:42:32.853Z,44.87
2022-09-23T14:42:42.972Z,45.07
2022-09-23T14:42:52.851Z,45.17
2022-09-23T14:43:02.851Z,45.07
2022-09-23T14:43:12.852Z,45.17
2022-09-23T14:43:22.855Z,45.48
2022-09-23T14:44:37.868Z,46.19
2022-09-23T14:44:47.862Z,46.39
2022-09-23T14:44:57.851Z,46.37
2022-09-23T14:45:07.852Z,45.89
2022-09-23T14:47:19.947Z,46.09
2022-09-23T14:47:29.908Z,46.09
2022-09-23T14:47:39.901Z,46.09
2022-09-23T14:47:49.900Z,45.98
2022-09-23T14:47:59.910Z,45.98
2022-09-23T14:48:09.899Z,45.98
2022-09-23T14:48:19.897Z,46.09
2022-09-23T14:48:29.902Z,46.09
2022-09-23T14:48:39.900Z,46.06
2022-09-23T14:48:49.903Z,45.76
2022-09-23T14:48:59.947Z,45.66
2022-09-23T14:49:09.919Z,46.06
2022-09-23T14:49:19.900Z,46.27
2022-09-23T14:49:29.905Z,45.66
2022-09-23T14:49:39.906Z,45.46
2022-09-23T14:49:49.912Z,45.58
2022-09-23T14:49:59.908Z,45.78
2022-09-23T14:50:09.908Z,45.98
2022-09-23T14:50:19.919Z,45.98
2022-09-23T14:50:29.913Z,45.58
2022-09-23T14:50:40.106Z,45.28
2022-09-23T14:50:49.919Z,45.37
2022-09-23T14:50:59.929Z,45.37
2022-09-23T14:51:13.204Z,45.28
2022-09-23T14:51:20.920Z,45.40
2022-09-23T14:51:29.915Z,45.60
2022-09-23T14:51:39.965Z,45.78
2022-09-23T14:51:49.917Z,45.89
2022-09-23T14:51:59.919Z,46.09
2022-09-23T14:52:09.928Z,46.09
2022-09-23T14:52:19.918Z,46.09
2022-09-23T14:52:29.923Z,45.89
2022-09-23T14:52:39.927Z,45.89
2022-09-23T14:52:49.926Z,45.78
2022-09-23T14:52:59.930Z,45.89
2022-09-23T14:53:09.932Z,45.98
2022-09-23T14:53:19.928Z,46.19
2022-09-23T14:53:29.942Z,46.51
2022-09-23T14:53:39.931Z,46.62
2022-09-23T14:53:49.929Z,47.02
2022-09-23T14:53:59.928Z,47.33
2022-09-23T14:54:09.934Z,47.74
2022-09-23T14:54:19.929Z,47.94
2022-09-23T14:54:29.931Z,48.14
2022-09-23T14:54:39.935Z,48.44
2022-09-23T14:54:49.938Z,48.14
2022-09-23T14:54:59.944Z,47.74
2022-09-23T14:55:09.953Z,47.43
2022-09-23T14:55:19.939Z,47.30
2022-09-23T14:55:29.946Z,47.33
2022-09-23T14:55:39.944Z,46.90
2022-09-23T14:55:49.948Z,46.59
2022-09-23T14:55:59.939Z,46.49
2022-09-23T14:56:10.055Z,46.59
2022-09-23T14:58:27.525Z,45.28
2022-09-23T14:58:37.513Z,44.97
2022-09-23T14:58:52.026Z,45.07
2022-09-23T14:58:58.531Z,45.37
2022-09-23T15:00:19.878Z,44.60
2022-09-23T15:00:29.862Z,44.51
2022-09-23T15:01:27.409Z,45.21
2022-09-23T15:04:21.888Z,45.29
2022-09-23T15:04:31.861Z,45.50
2022-09-23T15:04:41.878Z,45.70
2022-09-23T15:04:53.137Z,45.90
2022-09-23T15:05:01.864Z,45.90
2022-09-23T15:05:11.875Z,46.01
2022-09-23T15:05:21.863Z,45.80
2022-09-23T15:05:31.869Z,45.70
2022-09-23T15:05:41.871Z,45.83
2022-09-23T15:05:51.871Z,45.93
2022-09-23T15:06:05.144Z,45.93
2022-09-23T15:06:12.866Z,46.33
2022-09-23T15:06:21.869Z,46.53
2022-09-23T15:06:31.871Z,46.44
2022-09-23T15:06:41.872Z,46.41
2022-09-23T15:06:51.873Z,46.11
2022-09-23T15:07:01.879Z,45.80
2022-09-23T15:07:11.871Z,45.70
2022-09-23T15:07:21.877Z,45.80
2022-09-23T15:07:31.872Z,45.40
2022-09-23T15:07:41.877Z,45.29
2022-09-23T15:07:51.873Z,45.29
2022-09-23T15:08:01.878Z,45.20
2022-09-23T15:08:11.876Z,44.99
2022-09-23T15:08:21.880Z,44.99
2022-09-23T15:08:31.875Z,45.20
2022-09-23T15:08:41.876Z,45.09
2022-09-23T15:08:51.876Z,45.09
2022-09-23T15:09:01.891Z,45.09
2022-09-23T15:10:35.185Z,44.79
2022-09-23T15:10:45.166Z,44.89
2022-09-23T15:10:55.171Z,45.09
2022-09-23T15:11:08.115Z,45.20
2022-09-23T15:11:15.165Z,45.20
2022-09-23T15:11:25.184Z,45.20
2022-09-23T15:11:35.177Z,45.20
2022-09-23T15:11:45.173Z,45.40
2022-09-23T15:11:55.166Z,45.50
2022-09-23T15:12:05.169Z,45.70
2022-09-23T15:12:15.175Z,45.80
2022-09-23T15:12:25.177Z,45.78
2022-09-23T15:12:35.173Z,45.78
2022-09-23T15:15:59.750Z,46.29
2022-09-23T15:16:09.688Z,46.47
2022-09-23T15:16:19.723Z,47.08
2022-09-23T15:16:29.741Z,47.79
2022-09-23T15:16:39.743Z,48.30
2022-09-23T15:16:49.765Z,48.40
2022-09-23T15:16:59.709Z,48.22
2022-09-23T15:17:09.666Z,47.71
2022-09-23T15:17:19.667Z,47.59
2022-09-23T15:17:29.671Z,47.61
2022-09-23T15:17:39.666Z,47.61
2022-09-23T15:17:49.749Z,47.51
2022-09-23T15:17:59.671Z,47.20
2022-09-23T15:18:09.669Z,47.10
2022-09-23T15:19:24.682Z,47.20
2022-09-23T15:19:34.672Z,47.30
2022-09-23T15:19:44.670Z,47.10
2022-09-23T15:19:54.668Z,47.20
2022-09-23T15:20:04.848Z,47.53
2022-09-23T15:20:14.667Z,47.83
2022-09-23T15:20:24.677Z,47.94
2022-09-23T15:20:34.673Z,48.14
2022-09-23T15:20:44.687Z,48.24
2022-09-23T15:20:54.676Z,48.14
2022-09-23T15:21:04.672Z,48.14
2022-09-23T15:21:14.689Z,48.14
2022-09-23T15:21:24.673Z,48.24
2022-09-23T15:21:34.678Z,48.44
2022-09-23T15:22:55.101Z,47.94
2022-09-23T15:23:05.102Z,47.83
2022-09-23T15:23:15.073Z,47.81
2022-09-23T15:23:27.762Z,48.24
2022-09-23T15:23:35.084Z,47.94
2022-09-23T15:25:16.389Z,47.86
2022-09-23T15:25:26.387Z,48.16
2022-09-23T15:28:02.623Z,49.28
2022-09-23T15:28:12.598Z,49.28
2022-09-23T15:28:22.585Z,48.87
2022-09-23T15:28:48.455Z,48.77
2022-09-23T15:28:48.729Z,48.67
2022-09-23T15:28:58.735Z,48.57
2022-09-23T15:29:08.732Z,48.36
2022-09-23T15:31:24.739Z,48.67
2022-09-23T15:31:34.722Z,48.47
2022-09-23T15:31:44.722Z,48.36
2022-09-23T15:31:54.728Z,48.36
2022-09-23T15:32:04.723Z,47.96
2022-09-23T15:32:14.677Z,47.66
2022-09-23T15:32:24.677Z,47.55
2022-09-23T15:32:34.684Z,47.55
2022-09-23T15:32:44.692Z,47.75
2022-09-23T15:32:54.680Z,47.86
2022-09-23T15:33:04.682Z,47.86
2022-09-23T15:33:14.685Z,48.06
2022-09-23T15:33:24.682Z,48.27
2022-09-23T15:33:34.687Z,48.27
2022-09-23T15:33:44.708Z,48.27
2022-09-23T15:33:54.682Z,48.27
2022-09-23T15:34:04.683Z,48.19
2022-09-23T15:34:14.681Z,48.28
2022-09-23T15:34:24.691Z,48.39
2022-09-23T15:34:34.694Z,48.59
2022-09-23T15:34:44.687Z,48.80
2022-09-23T15:34:54.710Z,48.80
2022-09-23T15:35:04.687Z,48.69
2022-09-23T15:35:14.689Z,48.59
2022-09-23T15:35:24.718Z,48.69
2022-09-23T15:35:34.695Z,48.80
2022-09-23T15:35:44.689Z,48.80
2022-09-23T15:35:54.695Z,48.80
2022-09-23T15:36:04.690Z,48.80
2022-09-23T15:36:14.701Z,48.90
2022-09-23T15:36:24.709Z,49.00
2022-09-23T15:36:34.710Z,49.20
2022-09-23T15:36:44.692Z,49.30
2022-09-23T15:36:54.707Z,49.10
2022-09-23T15:37:04.698Z,48.90
2022-09-23T15:37:14.698Z,49.10
2022-09-23T15:42:46.046Z,49.40
2022-09-23T15:42:56.059Z,49.40
2022-09-23T15:43:06.028Z,49.40
2022-09-23T15:43:20.212Z,49.30
2022-09-23T15:43:27.049Z,49.10
2022-09-23T15:43:36.035Z,49.00
2022-09-23T15:43:46.033Z,49.00
2022-09-23T15:43:56.035Z,49.10
2022-09-23T15:44:06.141Z,49.10
2022-09-23T15:44:16.035Z,49.10
2022-09-23T15:45:32.829Z,49.00
2022-09-23T15:45:42.905Z,49.00
2022-09-23T15:45:52.838Z,48.90
2022-09-23T15:46:02.795Z,48.90
2022-09-23T15:46:12.793Z,48.90
2022-09-23T15:46:22.742Z,48.90
2022-09-23T15:46:32.744Z,48.90
2022-09-23T15:47:47.768Z,48.69
2022-09-23T15:47:57.743Z,48.80
2022-09-23T15:48:07.785Z,49.00
2022-09-23T15:48:17.741Z,49.10
2022-09-23T15:48:27.744Z,49.10
2022-09-23T15:48:37.746Z,49.00
2022-09-23T15:48:47.745Z,48.80
2022-09-23T15:48:58.783Z,48.80
2022-09-23T15:50:50.523Z,48.49
2022-09-23T15:53:21.930Z,49.91
2022-09-23T15:53:31.906Z,49.81
2022-09-23T15:53:41.906Z,49.81
2022-09-23T15:53:51.910Z,49.91
2022-09-23T15:54:01.909Z,49.91
2022-09-23T15:54:12.016Z,49.61
2022-09-23T15:57:13.164Z,49.10
2022-09-23T15:57:13.434Z,49.00
2022-09-23T15:57:23.448Z,49.10
2022-09-23T16:02:06.486Z,49.40
2022-09-23T16:02:16.556Z,49.40
2022-09-23T16:02:26.447Z,49.51
2022-09-23T16:02:36.452Z,49.63
2022-09-23T16:02:46.472Z,49.71
2022-09-23T16:02:56.398Z,50.01
2022-09-23T16:03:06.401Z,49.91
2022-09-23T16:03:16.399Z,49.91
2022-09-23T16:03:26.399Z,49.84
2022-09-23T16:03:36.475Z,49.94
2022-09-23T16:03:46.401Z,50.01
2022-09-23T16:03:56.401Z,49.94
2022-09-23T16:04:06.405Z,49.91
2022-09-23T16:09:25.011Z,50.67
2022-09-23T16:10:40.418Z,49.96
2022-09-23T16:10:50.411Z,50.06